Terminal Aerodrome Forecast
Issued by NWS

Home | Current Version | Previous Version | Text Only | Print | Product List | Glossary On
Versions: 1 2 3 4 5 6 7 8 9 10 11 12 13
000
FTUS41 KBTV 280539
TAFPBG
TAF
KPBG 280539Z 2806/2906 VRB03KT P6SM BKN060
     FM281200 15006KT P6SM SCT150
     FM281800 14010KT P6SM VCSH BKN050
     FM290100 19007KT P6SM SCT050=

USA.gov is the U.S. government's official web portal to all federal, state and local government web resources and services.